Time;durP1;ratioP1;P1;durP2;ratioP2;P2;SDS_P1;SDS_P2;PMS_P1;PMS_P2;Temp;Humidity;BMP_temperature;BMP_pressure;BME280_temperature;BME280_humidity;BME280_pressure;Samples;Min_cycle;Max_cycle;Signal;HPM_P1;HPM_P2
2021/12/10 00:00:46;;;;;;;5.35;3.20;;;7.10;99.90;;;;;;5053243;28;20180;-75
2021/12/10 00:03:38;;;;;;;4.20;3.90;;;7.10;99.90;;;;;;5053346;28;20203;-75
2021/12/10 00:06:27;;;;;;;4.60;3.85;;;7.10;99.90;;;;;;5053331;28;20192;-75
2021/12/10 00:08:56;;;;;;;3.38;3.03;;;7.00;99.90;;;;;;5036728;28;20196;-76
2021/12/10 00:12:08;;;;;;;5.25;4.07;;;7.00;99.90;;;;;;5071031;28;20180;-75
2021/12/10 00:14:36;;;;;;;9.60;3.10;;;7.00;99.90;;;;;;5045189;28;20229;-76
2021/12/10 00:17:06;;;;;;;3.58;2.50;;;6.90;99.90;;;;;;5071265;28;20207;-75
2021/12/10 00:19:45;;;;;;;4.05;2.22;;;6.90;99.90;;;;;;5053227;28;20169;-76
2021/12/10 00:22:30;;;;;;;2.80;2.10;;;6.90;99.90;;;;;;5071194;28;20751;-75
2021/12/10 00:24:56;;;;;;;5.43;2.90;;;6.80;99.90;;;;;;5071530;28;20640;-75
2021/12/10 00:27:31;;;;;;;3.22;2.90;;;6.80;99.90;;;;;;5071253;28;20639;-75
2021/12/10 00:30:06;;;;;;;5.90;4.00;;;6.80;99.90;;;;;;5054292;28;20253;-76
2021/12/10 00:32:38;;;;;;;4.38;3.38;;;6.80;99.90;;;;;;5070773;28;20596;-75
2021/12/10 00:35:10;;;;;;;4.28;2.83;;;6.80;99.90;;;;;;5075428;28;20175;-75
2021/12/10 00:37:35;;;;;;;4.28;2.70;;;6.80;99.90;;;;;;5057017;28;20195;-75
2021/12/10 00:40:06;;;;;;;3.20;2.60;;;6.70;99.90;;;;;;5057192;28;20176;-75
2021/12/10 00:42:35;;;;;;;3.03;2.08;;;6.70;99.90;;;;;;5074417;28;20207;-75
2021/12/10 00:45:03;;;;;;;4.20;2.88;;;6.70;99.90;;;;;;5074900;28;20641;-75
2021/12/10 00:47:29;;;;;;;4.03;2.53;;;6.60;99.90;;;;;;5057325;28;20187;-75
2021/12/10 00:49:55;;;;;;;8.17;3.17;;;6.60;99.90;;;;;;5057157;28;20200;-74
2021/12/10 00:52:21;;;;;;;3.90;2.78;;;6.60;99.90;;;;;;5057431;28;20974;-75
2021/12/10 00:54:47;;;;;;;5.07;2.90;;;6.60;99.90;;;;;;5074568;28;20161;-75
2021/12/10 00:57:15;;;;;;;5.47;3.38;;;6.50;99.90;;;;;;5075261;28;20570;-75
2021/12/10 00:59:42;;;;;;;5.03;2.80;;;6.50;99.90;;;;;;5074692;28;20196;-75
2021/12/10 01:02:11;;;;;;;3.30;2.53;;;6.40;99.90;;;;;;5075014;28;20200;-75
2021/12/10 01:04:39;;;;;;;4.03;2.53;;;6.40;99.90;;;;;;5074018;28;20169;-74
2021/12/10 01:07:09;;;;;;;2.47;2.08;;;6.40;99.90;;;;;;5074506;28;20245;-74
2021/12/10 01:09:39;;;;;;;3.40;1.90;;;6.40;99.90;;;;;;5073710;28;20745;-75
2021/12/10 01:12:27;;;;;;;2.30;1.75;;;6.40;99.90;;;;;;5074515;28;20195;-75
2021/12/10 01:26:58;;;;;;;2.60;1.40;;;6.30;99.90;;;;;;5074327;28;20505;-75
2021/12/10 01:28:58;;;;;;;3.47;2.20;;;6.30;99.90;;;;;;5059174;28;20212;-75
2021/12/10 01:31:24;;;;;;;3.83;1.40;;;6.30;99.90;;;;;;5074095;28;20176;-75
2021/12/10 01:33:52;;;;;;;3.97;2.47;;;6.40;99.90;;;;;;5055984;28;20163;-75
2021/12/10 01:36:18;;;;;;;2.88;1.58;;;6.40;99.90;;;;;;5074046;28;20172;-75
2021/12/10 01:38:46;;;;;;;3.00;1.70;;;6.50;99.90;;;;;;5055768;28;20177;-75
2021/12/10 01:41:17;;;;;;;9.10;2.45;;;6.50;99.90;;;;;;5073596;28;20175;-76
2021/12/10 01:43:45;;;;;;;8.15;3.28;;;6.60;99.90;;;;;;5074293;28;20173;-75
2021/12/10 01:46:19;;;;;;;3.80;2.30;;;6.60;99.90;;;;;;5069272;28;20183;-75
2021/12/10 01:48:48;;;;;;;3.20;1.30;;;6.60;99.90;;;;;;5064933;28;20235;-75
2021/12/10 01:51:20;;;;;;;4.53;2.45;;;6.70;99.90;;;;;;5073358;28;20169;-75
2021/12/10 01:53:48;;;;;;;6.45;2.70;;;6.70;99.90;;;;;;5073493;28;20172;-75
2021/12/10 01:56:20;;;;;;;4.07;2.10;;;6.80;99.90;;;;;;5073524;28;20168;-75
2021/12/10 01:58:47;;;;;;;4.32;1.77;;;6.80;99.90;;;;;;5073266;28;20168;-75
2021/12/10 02:01:19;;;;;;;3.00;1.90;;;6.90;99.90;;;;;;5055186;28;20177;-76
2021/12/10 02:03:50;;;;;;;3.25;1.50;;;6.90;99.90;;;;;;5073311;28;20180;-76
2021/12/10 02:06:16;;;;;;;5.30;2.00;;;7.00;99.90;;;;;;5055571;28;20668;-76
2021/12/10 02:08:42;;;;;;;6.00;2.08;;;7.00;99.90;;;;;;5072916;28;20211;-76
2021/12/10 02:11:08;;;;;;;7.00;1.83;;;7.00;99.90;;;;;;5073210;28;20230;-75
2021/12/10 02:13:35;;;;;;;3.53;1.70;;;7.00;99.90;;;;;;5073353;28;20578;-76
2021/12/10 02:16:01;;;;;;;6.47;1.17;;;7.10;99.90;;;;;;5072856;28;20176;-76
2021/12/10 02:18:27;;;;;;;2.90;1.40;;;7.10;99.90;;;;;;5073023;28;20168;-76
2021/12/10 02:21:02;;;;;;;2.93;1.67;;;7.10;99.90;;;;;;5055169;28;21025;-75
2021/12/10 02:23:33;;;;;;;3.95;1.38;;;7.10;99.90;;;;;;5054786;28;20606;-75
2021/12/10 02:26:03;;;;;;;8.50;1.70;;;7.10;99.90;;;;;;5073080;28;20195;-76
2021/12/10 02:28:29;;;;;;;4.82;1.85;;;7.10;99.90;;;;;;5054312;28;20208;-76
2021/12/10 02:30:56;;;;;;;3.58;1.33;;;7.00;99.90;;;;;;5072846;28;20167;-75
2021/12/10 02:33:22;;;;;;;4.53;1.70;;;7.00;99.90;;;;;;5072596;28;20577;-75
2021/12/10 02:35:48;;;;;;;5.20;1.45;;;6.90;99.90;;;;;;5072548;28;20165;-75
2021/12/10 02:38:17;;;;;;;4.45;1.90;;;6.90;99.90;;;;;;5055087;28;20168;-75
2021/12/10 02:40:44;;;;;;;3.35;1.55;;;6.80;99.90;;;;;;5072305;28;20165;-75
2021/12/10 02:43:13;;;;;;;2.88;1.90;;;6.80;99.90;;;;;;5071906;28;20619;-75
2021/12/10 02:45:41;;;;;;;3.95;1.65;;;6.70;99.90;;;;;;5038083;28;20636;-75
2021/12/10 02:48:07;;;;;;;3.25;1.33;;;6.70;99.90;;;;;;5072364;28;20179;-75
2021/12/10 02:50:34;;;;;;;3.13;1.33;;;6.60;99.90;;;;;;5072138;28;20761;-75
2021/12/10 02:53:01;;;;;;;5.38;2.60;;;6.60;99.90;;;;;;5054066;28;20656;-75
2021/12/10 02:55:28;;;;;;;3.85;1.45;;;6.50;99.90;;;;;;5072410;28;20249;-75
2021/12/10 02:57:58;;;;;;;3.85;1.40;;;6.50;99.90;;;;;;5053930;28;20168;-75
2021/12/10 03:00:30;;;;;;;3.08;1.38;;;6.50;99.90;;;;;;5054102;28;20666;-75
2021/12/10 03:02:57;;;;;;;4.53;1.23;;;6.40;99.90;;;;;;5037245;28;20192;-75
2021/12/10 03:05:23;;;;;;;6.22;1.58;;;6.40;99.90;;;;;;5072521;28;20768;-74
2021/12/10 03:07:50;;;;;;;3.63;1.33;;;6.40;99.90;;;;;;5072132;28;20187;-76
2021/12/10 03:10:22;;;;;;;5.68;1.98;;;6.40;99.90;;;;;;5037269;28;20260;-76
2021/12/10 03:12:48;;;;;;;6.15;2.20;;;6.40;99.90;;;;;;5071519;28;20203;-75
2021/12/10 03:15:16;;;;;;;3.70;1.60;;;6.30;99.90;;;;;;5072304;28;20255;-76
2021/12/10 03:17:42;;;;;;;4.53;1.10;;;6.30;99.90;;;;;;5037266;28;20168;-76
2021/12/10 03:20:11;;;;;;;3.22;1.00;;;6.40;99.90;;;;;;5053868;28;20169;-75
2021/12/10 03:22:38;;;;;;;3.35;1.20;;;6.40;99.90;;;;;;5071643;28;20241;-76
2021/12/10 03:25:07;;;;;;;4.97;1.20;;;6.40;99.90;;;;;;5054200;28;20180;-75
2021/12/10 03:27:33;;;;;;;3.53;1.27;;;6.50;99.90;;;;;;5053977;28;20171;-76
2021/12/10 03:29:59;;;;;;;6.88;1.42;;;6.50;99.90;;;;;;5071529;28;20219;-76
2021/12/10 03:32:29;;;;;;;2.07;1.20;;;6.50;99.90;;;;;;5071789;28;20215;-75
2021/12/10 03:34:57;;;;;;;6.00;2.25;;;6.50;99.90;;;;;;5071896;28;20550;-75
2021/12/10 03:37:23;;;;;;;6.80;1.67;;;6.50;99.90;;;;;;5074197;28;20187;-76
2021/12/10 03:39:51;;;;;;;6.20;1.10;;;6.50;99.90;;;;;;5071526;28;20173;-75
2021/12/10 03:42:17;;;;;;;2.63;1.00;;;6.40;99.90;;;;;;5071625;28;20649;-75
2021/12/10 03:44:43;;;;;;;3.15;0.90;;;6.40;99.90;;;;;;5053633;28;20165;-74
2021/12/10 03:47:09;;;;;;;2.78;1.20;;;6.40;99.90;;;;;;5071723;28;20168;-74
2021/12/10 03:49:36;;;;;;;2.47;1.00;;;6.40;99.90;;;;;;5070947;28;20200;-75
2021/12/10 03:52:05;;;;;;;4.88;1.45;;;6.40;99.90;;;;;;5071791;28;20188;-75
2021/12/10 03:54:30;;;;;;;3.05;1.52;;;6.40;99.90;;;;;;5036552;28;20169;-75
2021/12/10 03:56:57;;;;;;;3.27;1.03;;;6.40;99.90;;;;;;5053478;28;20156;-75
2021/12/10 03:59:24;;;;;;;3.50;1.00;;;6.50;99.90;;;;;;5053206;28;20177;-75
2021/12/10 04:01:55;;;;;;;3.28;1.38;;;6.40;99.90;;;;;;5071400;28;20196;-75
2021/12/10 04:04:29;;;;;;;2.78;1.08;;;6.50;99.90;;;;;;5071113;28;20581;-76
2021/12/10 04:06:56;;;;;;;5.07;0.90;;;6.50;99.90;;;;;;5053796;28;20271;-75
2021/12/10 04:09:23;;;;;;;4.88;0.95;;;6.40;99.90;;;;;;5056082;28;20221;-75
2021/12/10 04:11:51;;;;;;;5.50;1.05;;;6.40;99.90;;;;;;5075621;28;20597;-75
2021/12/10 04:14:17;;;;;;;6.57;1.10;;;6.50;99.90;;;;;;5075145;28;20172;-75
2021/12/10 04:16:43;;;;;;;3.00;1.25;;;6.50;99.90;;;;;;5057512;28;20179;-75
2021/12/10 04:19:12;;;;;;;4.15;1.60;;;6.50;99.90;;;;;;5074713;28;20156;-75
2021/12/10 04:21:41;;;;;;;5.28;1.35;;;6.50;99.90;;;;;;5075263;28;20208;-75
2021/12/10 04:24:14;;;;;;;12.05;1.30;;;6.50;99.90;;;;;;5075035;28;20169;-75
2021/12/10 04:26:41;;;;;;;3.58;1.50;;;6.60;99.90;;;;;;5075286;28;20202;-75
2021/12/10 04:29:07;;;;;;;4.55;0.82;;;6.60;99.90;;;;;;5074757;28;20252;-75
2021/12/10 04:31:33;;;;;;;4.20;1.10;;;6.60;99.90;;;;;;5074922;28;20918;-75
2021/12/10 04:33:59;;;;;;;5.18;0.90;;;6.60;99.90;;;;;;5056934;28;20566;-75
2021/12/10 04:36:26;;;;;;;6.30;1.63;;;6.60;99.90;;;;;;5057091;28;20165;-75
2021/12/10 04:38:52;;;;;;;3.38;0.90;;;6.60;99.90;;;;;;5056496;28;20172;-75
2021/12/10 04:41:19;;;;;;;6.18;1.40;;;6.60;99.90;;;;;;5056734;28;20520;-75
2021/12/10 04:43:47;;;;;;;3.80;1.45;;;6.60;99.90;;;;;;5074669;28;20263;-75
2021/12/10 04:46:14;;;;;;;3.80;1.25;;;6.70;99.90;;;;;;5056623;28;20175;-75
2021/12/10 04:49:02;;;;;;;2.53;0.95;;;6.60;99.90;;;;;;5074226;28;20196;-75
2021/12/10 04:51:40;;;;;;;12.43;1.67;;;6.50;99.90;;;;;;5039857;28;20196;-75
2021/12/10 04:54:10;;;;;;;3.83;1.40;;;6.60;99.90;;;;;;5056771;28;20164;-75
2021/12/10 04:56:37;;;;;;;5.00;1.15;;;6.60;99.90;;;;;;5075781;28;20191;-75
2021/12/10 04:59:06;;;;;;;2.92;1.30;;;6.60;99.90;;;;;;5056339;28;20172;-75
2021/12/10 05:01:33;;;;;;;3.95;1.48;;;6.50;99.90;;;;;;5074019;28;20184;-75
2021/12/10 05:03:59;;;;;;;2.35;0.90;;;6.50;99.90;;;;;;5074195;28;20330;-75
2021/12/10 05:06:25;;;;;;;4.63;1.50;;;6.50;99.90;;;;;;5056280;28;20214;-75
2021/12/10 05:08:50;;;;;;;3.47;1.53;;;6.50;99.90;;;;;;5073475;28;20619;-75
2021/12/10 05:11:17;;;;;;;3.67;1.60;;;6.50;99.90;;;;;;5073948;28;20577;-75
2021/12/10 05:13:45;;;;;;;2.65;1.20;;;6.50;99.90;;;;;;5056201;28;20533;-75
2021/12/10 05:16:11;;;;;;;4.55;2.30;;;6.40;99.90;;;;;;5056071;28;20185;-75
2021/12/10 05:18:41;;;;;;;6.30;2.35;;;6.40;99.90;;;;;;5073515;28;20196;-75
2021/12/10 05:21:09;;;;;;;6.25;1.77;;;6.40;99.90;;;;;;5074020;28;20222;-75
2021/12/10 05:23:36;;;;;;;3.15;1.67;;;6.30;99.90;;;;;;5055867;28;20536;-75
2021/12/10 05:26:03;;;;;;;5.07;1.85;;;6.30;99.90;;;;;;5073877;28;20251;-75
2021/12/10 05:28:30;;;;;;;3.00;1.60;;;6.30;99.90;;;;;;5073545;28;20299;-76
2021/12/10 05:30:56;;;;;;;4.20;1.20;;;6.20;99.90;;;;;;5056151;28;20179;-75
2021/12/10 05:33:27;;;;;;;3.88;2.10;;;6.20;99.90;;;;;;5073578;28;20196;-76
2021/12/10 05:35:53;;;;;;;3.45;1.40;;;6.20;99.90;;;;;;5055933;28;20644;-76
2021/12/10 05:38:22;;;;;;;3.83;1.65;;;6.10;99.90;;;;;;5073229;28;20649;-76
2021/12/10 05:40:50;;;;;;;3.97;1.70;;;6.10;99.90;;;;;;5039207;28;20172;-75
2021/12/10 05:43:16;;;;;;;5.82;1.90;;;6.10;99.90;;;;;;5038588;28;20753;-75
2021/12/10 05:45:44;;;;;;;3.47;1.20;;;6.10;99.90;;;;;;5055708;28;20176;-76
2021/12/10 05:48:09;;;;;;;6.25;1.70;;;6.00;99.90;;;;;;5038919;28;20172;-76
2021/12/10 05:50:36;;;;;;;19.23;3.07;;;6.00;99.90;;;;;;5055498;28;20263;-75
2021/12/10 05:53:03;;;;;;;5.85;2.33;;;6.00;99.90;;;;;;5055318;28;20586;-76
2021/12/10 05:55:30;;;;;;;6.40;1.95;;;6.00;99.90;;;;;;5056034;28;20190;-75
2021/12/10 05:57:56;;;;;;;8.45;2.33;;;5.90;99.90;;;;;;5073545;28;20207;-76
2021/12/10 06:00:26;;;;;;;5.20;2.13;;;5.90;99.90;;;;;;5073101;28;20219;-75
2021/12/10 06:02:53;;;;;;;2.70;1.35;;;5.90;99.90;;;;;;5055255;28;20637;-76
2021/12/10 06:05:19;;;;;;;3.30;2.10;;;5.90;99.90;;;;;;5073698;28;20565;-75
2021/12/10 06:07:45;;;;;;;3.67;1.90;;;5.90;99.90;;;;;;5055241;28;20176;-75
2021/12/10 06:10:13;;;;;;;4.53;2.10;;;5.90;99.90;;;;;;5072864;28;20706;-76
2021/12/10 06:12:40;;;;;;;4.22;1.45;;;5.90;99.90;;;;;;5072949;28;20626;-76
2021/12/10 06:15:07;;;;;;;7.72;3.58;;;5.90;99.90;;;;;;5073413;28;20165;-76
2021/12/10 06:17:32;;;;;;;5.45;1.80;;;5.90;99.90;;;;;;5073103;28;20171;-76
2021/12/10 06:19:59;;;;;;;5.53;2.07;;;5.90;99.90;;;;;;5072669;28;20531;-76
2021/12/10 06:22:26;;;;;;;5.20;1.50;;;5.80;99.90;;;;;;5073004;28;20196;-76
2021/12/10 06:24:52;;;;;;;6.22;1.95;;;5.90;99.90;;;;;;5037943;28;20636;-76
2021/12/10 06:27:18;;;;;;;5.82;1.80;;;5.80;99.90;;;;;;5055113;28;20229;-76
2021/12/10 06:29:44;;;;;;;2.75;1.42;;;5.80;99.90;;;;;;5072207;28;20227;-76
2021/12/10 06:32:10;;;;;;;11.07;2.50;;;5.80;99.90;;;;;;5072710;28;20191;-75
2021/12/10 06:34:37;;;;;;;9.02;1.60;;;5.70;99.90;;;;;;5072810;28;20184;-76
2021/12/10 06:37:04;;;;;;;4.45;1.73;;;5.80;99.90;;;;;;5072984;28;20168;-76
2021/12/10 06:39:30;;;;;;;5.35;1.77;;;5.70;99.90;;;;;;5072972;28;20350;-76
2021/12/10 06:41:56;;;;;;;8.23;2.00;;;5.70;99.90;;;;;;5054765;28;20203;-75
2021/12/10 06:44:23;;;;;;;4.75;1.92;;;5.70;99.90;;;;;;5054610;28;21334;-75
2021/12/10 06:46:50;;;;;;;3.50;1.33;;;5.70;99.90;;;;;;5054721;28;20208;-75
2021/12/10 06:49:17;;;;;;;5.82;1.77;;;5.70;99.90;;;;;;5071481;28;20692;-75
2021/12/10 06:51:44;;;;;;;4.55;2.05;;;5.60;99.90;;;;;;5072404;28;20196;-75
2021/12/10 06:54:10;;;;;;;4.90;1.10;;;5.70;99.90;;;;;;5071920;28;20213;-75
2021/12/10 06:56:37;;;;;;;5.63;1.50;;;5.70;99.90;;;;;;5072430;28;20172;-75
2021/12/10 06:59:05;;;;;;;3.88;1.40;;;5.70;99.90;;;;;;5071419;28;20559;-75
2021/12/10 07:01:35;;;;;;;4.63;1.38;;;5.70;99.90;;;;;;5072129;28;20185;-75
2021/12/10 07:04:04;;;;;;;3.97;1.40;;;5.70;99.90;;;;;;5071488;28;20164;-75
2021/12/10 07:06:31;;;;;;;6.70;1.30;;;5.70;99.90;;;;;;5072021;28;20179;-75
2021/12/10 07:08:59;;;;;;;5.05;1.45;;;5.70;99.90;;;;;;5053661;28;20207;-75
2021/12/10 07:11:27;;;;;;;4.75;2.03;;;5.80;99.90;;;;;;5071760;28;20539;-75
2021/12/10 07:13:56;;;;;;;4.38;1.70;;;5.80;99.90;;;;;;5053966;28;20540;-75
2021/12/10 07:16:23;;;;;;;4.78;1.70;;;5.80;99.90;;;;;;5071750;28;20172;-75
2021/12/10 07:18:51;;;;;;;5.93;1.50;;;5.80;99.90;;;;;;5071251;28;20222;-75
2021/12/10 07:21:17;;;;;;;8.10;3.00;;;5.80;99.90;;;;;;5053697;28;20165;-75
2021/12/10 07:23:43;;;;;;;4.43;1.90;;;5.80;99.90;;;;;;5053118;28;20756;-75
2021/12/10 07:26:11;;;;;;;6.07;2.30;;;5.70;99.90;;;;;;5070716;28;20699;-75
2021/12/10 07:28:37;;;;;;;4.70;1.92;;;5.70;99.90;;;;;;5053453;28;20188;-75
2021/12/10 07:31:04;;;;;;;9.05;2.00;;;5.80;99.90;;;;;;5071017;28;20789;-74
2021/12/10 07:33:30;;;;;;;8.60;1.77;;;5.80;99.90;;;;;;5053397;28;20706;-75
2021/12/10 07:35:56;;;;;;;3.67;1.30;;;5.80;99.90;;;;;;5071583;28;20222;-75
2021/12/10 07:38:22;;;;;;;3.00;1.27;;;5.90;99.90;;;;;;5071429;28;20165;-75
2021/12/10 07:40:48;;;;;;;7.43;1.70;;;5.90;99.90;;;;;;5071374;28;20195;-75
2021/12/10 07:43:14;;;;;;;3.13;1.63;;;6.00;99.90;;;;;;5076996;22;21008;-80
2021/12/10 07:45:42;;;;;;;2.17;1.30;;;6.10;99.90;;;;;;5033387;28;20170;-80
2021/12/10 07:48:11;;;;;;;6.40;1.60;;;6.10;99.90;;;;;;5029201;28;20667;-81
2021/12/10 07:50:41;;;;;;;4.53;1.65;;;6.10;99.90;;;;;;5032915;28;20177;-80
2021/12/10 07:53:07;;;;;;;5.30;1.75;;;6.20;99.90;;;;;;5032411;28;20194;-79
2021/12/10 07:55:36;;;;;;;6.77;1.70;;;6.10;99.90;;;;;;5031306;28;20177;-81
2021/12/10 07:58:05;;;;;;;3.38;1.50;;;6.20;99.90;;;;;;5014447;28;20577;-80
2021/12/10 08:00:33;;;;;;;4.57;1.50;;;6.20;99.90;;;;;;5031619;28;20678;-81
2021/12/10 08:03:00;;;;;;;6.68;1.70;;;6.30;99.90;;;;;;5014190;28;20200;-74
2021/12/10 08:05:27;;;;;;;4.88;1.50;;;6.30;99.90;;;;;;5030381;28;20173;-74
2021/12/10 08:07:55;;;;;;;2.75;1.52;;;6.40;99.90;;;;;;5031176;28;20617;-74
2021/12/10 08:10:21;;;;;;;4.93;1.90;;;6.30;99.90;;;;;;5030931;28;20656;-74
2021/12/10 08:12:47;;;;;;;2.65;1.30;;;6.40;99.90;;;;;;5029544;28;20208;-74
2021/12/10 08:15:13;;;;;;;3.60;1.00;;;6.50;99.90;;;;;;5031512;28;20165;-75
2021/12/10 08:17:42;;;;;;;3.25;1.27;;;6.40;99.90;;;;;;5030879;28;20641;-74
2021/12/10 08:20:10;;;;;;;4.57;1.48;;;6.50;99.90;;;;;;5029671;28;20189;-74
2021/12/10 08:22:36;;;;;;;2.78;1.10;;;6.50;99.90;;;;;;5030989;28;20186;-74
2021/12/10 08:25:03;;;;;;;2.83;1.77;;;6.50;99.90;;;;;;5029830;28;20236;-74
2021/12/10 08:27:29;;;;;;;7.63;2.10;;;6.50;99.90;;;;;;5029668;28;20938;-74
2021/12/10 08:30:02;;;;;;;3.70;1.63;;;6.60;99.90;;;;;;5029660;28;20728;-74
2021/12/10 08:32:28;;;;;;;4.45;2.30;;;6.60;99.90;;;;;;5030892;28;20576;-74
2021/12/10 08:34:54;;;;;;;4.35;1.90;;;6.60;99.90;;;;;;5031242;28;20189;-73
2021/12/10 08:37:20;;;;;;;7.33;1.93;;;6.60;99.90;;;;;;5029700;28;20322;-73
2021/12/10 08:39:45;;;;;;;5.03;2.10;;;6.60;99.90;;;;;;5029835;28;20193;-74
2021/12/10 08:42:14;;;;;;;6.10;2.10;;;6.60;99.90;;;;;;5029420;28;20643;-75
2021/12/10 08:44:42;;;;;;;7.78;2.25;;;6.60;99.90;;;;;;5031012;28;20580;-74
2021/12/10 08:47:09;;;;;;;4.00;2.05;;;6.70;99.90;;;;;;5029548;28;20223;-74
2021/12/10 08:49:36;;;;;;;3.65;1.92;;;6.70;99.90;;;;;;5029577;28;20202;-74
2021/12/10 08:52:03;;;;;;;6.68;2.60;;;6.70;99.90;;;;;;5031030;28;20220;-74
2021/12/10 08:54:30;;;;;;;8.38;2.85;;;6.60;99.90;;;;;;5032216;28;20239;-74
2021/12/10 08:56:58;;;;;;;5.38;3.17;;;6.60;99.90;;;;;;5034895;28;20196;-74
2021/12/10 08:59:24;;;;;;;6.78;2.80;;;6.60;99.90;;;;;;5033104;28;20185;-73
2021/12/10 09:01:55;;;;;;;4.75;2.63;;;6.70;99.90;;;;;;5034790;28;20192;-73
2021/12/10 09:04:22;;;;;;;6.20;2.70;;;6.70;99.90;;;;;;5034573;28;20196;-74
2021/12/10 09:06:54;;;;;;;6.25;3.05;;;6.60;99.90;;;;;;5033442;28;20316;-74
2021/12/10 09:09:21;;;;;;;10.90;3.13;;;6.60;99.90;;;;;;5034243;28;20204;-74
2021/12/10 09:11:50;;;;;;;8.55;2.97;;;6.70;99.90;;;;;;5034593;28;20257;-74
2021/12/10 09:14:18;;;;;;;5.43;3.78;;;6.70;99.90;;;;;;5034171;28;20193;-74
2021/12/10 09:16:45;;;;;;;5.85;3.13;;;6.60;99.90;;;;;;5033328;28;20166;-74
2021/12/10 09:19:13;;;;;;;6.35;2.40;;;6.60;99.90;;;;;;5034255;28;20173;-74
2021/12/10 09:21:41;;;;;;;4.90;3.00;;;6.60;99.90;;;;;;5016568;28;20182;-74
2021/12/10 09:24:08;;;;;;;8.07;3.17;;;6.60;99.90;;;;;;5033935;28;20624;-74
2021/12/10 09:26:37;;;;;;;5.22;2.78;;;6.70;99.90;;;;;;5034090;28;20208;-73
2021/12/10 09:29:06;;;;;;;4.03;2.95;;;6.70;99.90;;;;;;5033577;28;20189;-73
2021/12/10 09:31:33;;;;;;;5.20;3.00;;;6.80;99.90;;;;;;5033717;28;20622;-73
2021/12/10 09:34:00;;;;;;;6.95;3.30;;;6.70;99.90;;;;;;5023617;28;20220;-74
2021/12/10 09:36:26;;;;;;;6.30;2.65;;;6.70;99.90;;;;;;5036670;28;20182;-73
2021/12/10 09:38:53;;;;;;;5.40;2.47;;;6.80;99.90;;;;;;5032531;28;20208;-75
2021/12/10 09:41:21;;;;;;;5.55;2.25;;;6.70;99.90;;;;;;5032772;28;21216;-74
2021/12/10 09:43:48;;;;;;;4.68;3.22;;;6.80;99.90;;;;;;5033155;28;20206;-79
2021/12/10 09:46:13;;;;;;;5.43;2.47;;;6.80;99.90;;;;;;5016299;28;20188;-80
2021/12/10 09:48:44;;;;;;;7.77;2.50;;;6.80;99.90;;;;;;5032323;28;20205;-81
2021/12/10 09:51:21;;;;;;;5.20;2.30;;;6.80;99.90;;;;;;5033646;28;20176;-80
2021/12/10 09:53:50;;;;;;;5.75;1.65;;;6.80;99.90;;;;;;5035538;28;20229;-78
2021/12/10 09:56:18;;;;;;;3.60;1.80;;;6.90;99.90;;;;;;5033589;28;20166;-80
2021/12/10 09:58:44;;;;;;;4.85;1.92;;;6.90;99.90;;;;;;5033029;28;20259;-80
2021/12/10 10:01:14;;;;;;;5.32;2.42;;;6.90;99.90;;;;;;5033510;28;20189;-80
2021/12/10 10:03:43;;;;;;;5.90;3.15;;;6.90;99.90;;;;;;5033466;28;20189;-81
2021/12/10 10:06:11;;;;;;;5.97;3.03;;;6.80;99.90;;;;;;5031420;28;20838;-74
2021/12/10 10:08:37;;;;;;;4.03;2.13;;;6.90;99.90;;;;;;5033786;28;20201;-74
2021/12/10 10:11:19;;;;;;;5.03;3.15;;;6.90;99.90;;;;;;5033722;28;20579;-73
2021/12/10 10:13:51;;;;;;;5.20;2.17;;;6.80;99.90;;;;;;5032000;28;20236;-72
2021/12/10 10:16:18;;;;;;;3.95;2.38;;;6.90;99.90;;;;;;5033220;28;20253;-73
2021/12/10 10:18:45;;;;;;;5.40;2.15;;;6.90;99.90;;;;;;5032086;28;20630;-73
2021/12/10 10:21:21;;;;;;;4.18;2.13;;;6.80;99.90;;;;;;5033353;28;20236;-73
2021/12/10 10:23:47;;;;;;;4.40;2.50;;;6.80;99.90;;;;;;5033469;28;20181;-72
2021/12/10 10:26:25;;;;;;;6.00;3.00;;;6.90;99.90;;;;;;5015314;28;20228;-74
2021/12/10 10:28:52;;;;;;;5.03;2.25;;;6.70;99.90;;;;;;5033037;28;20196;-72
2021/12/10 10:31:22;;;;;;;3.20;2.20;;;6.70;99.90;;;;;;5031756;28;20170;-74
2021/12/10 10:33:51;;;;;;;4.65;2.15;;;6.70;99.90;;;;;;5031732;28;20201;-72
2021/12/10 10:36:21;;;;;;;10.13;3.55;;;6.80;99.90;;;;;;5032698;28;20170;-73
2021/12/10 10:38:56;;;;;;;6.25;2.00;;;6.80;99.90;;;;;;5031754;28;20600;-73
2021/12/10 10:41:27;;;;;;;5.07;1.88;;;6.80;99.90;;;;;;5031545;28;20178;-72
2021/12/10 10:43:54;;;;;;;6.00;1.85;;;6.90;99.90;;;;;;5031402;28;20742;-72
2021/12/10 10:46:20;;;;;;;5.25;1.80;;;7.00;99.90;;;;;;5032645;28;20162;-72
2021/12/10 10:48:49;;;;;;;6.32;2.50;;;7.00;99.90;;;;;;5032659;28;20201;-73
2021/12/10 10:51:35;;;;;;;7.28;2.70;;;7.10;99.90;;;;;;5033148;28;20645;-73
2021/12/10 10:54:05;;;;;;;6.15;3.28;;;7.10;99.90;;;;;;5031213;28;20197;-77
2021/12/10 10:56:40;;;;;;;5.78;1.90;;;7.20;99.90;;;;;;5031568;28;20276;-74
2021/12/10 10:59:24;;;;;;;5.18;1.92;;;7.30;99.90;;;;;;5032570;28;20174;-74
2021/12/10 11:01:59;;;;;;;7.38;3.03;;;7.40;99.90;;;;;;5032471;28;20204;-74
2021/12/10 11:04:32;;;;;;;13.45;1.90;;;7.40;99.90;;;;;;5031259;28;20185;-74
2021/12/10 11:07:08;;;;;;;5.82;1.42;;;7.30;99.90;;;;;;5032253;28;20174;-74
2021/12/10 11:09:41;;;;;;;6.80;2.25;;;7.30;99.90;;;;;;5032295;28;20602;-75
2021/12/10 11:12:14;;;;;;;3.05;1.60;;;7.30;99.90;;;;;;5030777;28;20541;-74
2021/12/10 11:14:44;;;;;;;3.35;1.40;;;7.40;99.90;;;;;;5032413;28;20181;-74
2021/12/10 11:17:15;;;;;;;4.15;2.00;;;7.50;99.90;;;;;;5031924;28;20161;-74
2021/12/10 11:19:53;;;;;;;13.25;2.15;;;7.50;99.90;;;;;;5031074;28;20223;-74
2021/12/10 11:22:21;;;;;;;4.50;1.90;;;7.50;99.90;;;;;;5031970;28;20197;-74
2021/12/10 11:24:57;;;;;;;9.00;2.38;;;7.50;99.90;;;;;;5032083;28;20170;-75
2021/12/10 11:27:39;;;;;;;7.38;2.00;;;7.50;99.90;;;;;;5015226;28;20173;-73
2021/12/10 11:30:22;;;;;;;4.95;1.65;;;7.50;99.90;;;;;;5030785;28;20201;-73
2021/12/10 11:33:27;;;;;;;2.72;1.25;;;7.60;99.90;;;;;;5031792;28;20226;-73
2021/12/10 11:36:19;;;;;;;4.22;1.70;;;7.60;99.90;;;;;;4989880;28;20647;-73
2021/12/10 11:38:46;;;;;;;7.95;2.33;;;7.70;99.90;;;;;;4989901;28;20167;-73
2021/12/10 11:41:15;;;;;;;2.50;1.10;;;7.80;99.90;;;;;;5010576;28;20178;-73
2021/12/10 11:43:52;;;;;;;4.45;1.30;;;7.80;99.90;;;;;;5029931;28;20205;-73
2021/12/10 11:49:08;;;;;;;6.05;1.80;;;7.80;99.90;;;;;;5031491;28;20205;-74
2021/12/10 11:51:42;;;;;;;4.82;1.60;;;7.80;99.90;;;;;;5030468;28;20242;-75
2021/12/10 11:54:22;;;;;;;2.97;1.77;;;7.80;99.90;;;;;;5030141;28;20192;-74
2021/12/10 11:57:04;;;;;;;2.75;1.38;;;7.80;99.90;;;;;;5031768;28;20162;-75
2021/12/10 11:59:38;;;;;;;3.45;1.80;;;7.80;99.90;;;;;;5031238;28;20176;-75
2021/12/10 12:02:08;;;;;;;6.88;1.90;;;7.80;99.90;;;;;;5031511;28;20177;-74
2021/12/10 12:04:45;;;;;;;3.88;1.58;;;7.90;99.90;;;;;;5029769;28;20169;-74
2021/12/10 12:07:14;;;;;;;4.65;1.52;;;7.90;99.90;;;;;;5031312;28;20169;-75
2021/12/10 12:09:42;;;;;;;3.75;1.20;;;7.90;99.90;;;;;;5029616;28;20212;-74
2021/12/10 12:12:14;;;;;;;6.50;2.10;;;7.90;99.90;;;;;;5031316;28;20158;-74
2021/12/10 12:14:49;;;;;;;4.90;1.65;;;7.80;99.90;;;;;;5031197;28;20173;-74
2021/12/10 12:17:29;;;;;;;3.58;1.30;;;7.90;99.90;;;;;;5031210;28;20172;-74
2021/12/10 12:19:54;;;;;;;6.53;2.17;;;7.80;99.90;;;;;;5029338;28;20177;-74
2021/12/10 12:25:24;;;;;;;5.93;1.73;;;7.80;99.90;;;;;;5030404;28;20626;-73
2021/12/10 12:28:01;;;;;;;3.53;1.65;;;7.80;99.90;;;;;;5031695;28;20545;-73
2021/12/10 12:30:27;;;;;;;5.35;1.77;;;7.70;99.90;;;;;;5033179;28;20611;-73
2021/12/10 12:32:53;;;;;;;5.50;1.73;;;7.80;99.90;;;;;;5033938;28;20280;-74
2021/12/10 12:35:29;;;;;;;3.17;1.65;;;7.70;99.90;;;;;;5035023;28;20252;-73
2021/12/10 12:38:14;;;;;;;5.20;1.88;;;7.70;99.90;;;;;;5035256;28;20178;-74
2021/12/10 12:40:41;;;;;;;4.80;1.58;;;7.70;99.90;;;;;;5033875;28;20695;-74
2021/12/10 12:43:07;;;;;;;5.32;1.85;;;7.70;99.90;;;;;;5034747;28;20201;-78
2021/12/10 12:45:34;;;;;;;5.53;1.73;;;7.70;99.90;;;;;;5034547;28;20587;-78
2021/12/10 12:48:07;;;;;;;6.28;1.67;;;7.70;99.90;;;;;;5034740;28;20204;-78
2021/12/10 12:50:33;;;;;;;4.70;1.40;;;7.60;99.90;;;;;;5032664;28;20205;-78
2021/12/10 12:53:05;;;;;;;3.97;1.60;;;7.60;99.90;;;;;;5034572;28;20684;-78
2021/12/10 12:55:58;;;;;;;4.68;1.45;;;7.60;99.90;;;;;;5033021;28;20608;-77
2021/12/10 12:58:31;;;;;;;3.35;1.35;;;7.50;99.90;;;;;;5032890;28;20170;-77
2021/12/10 13:01:10;;;;;;;3.17;1.65;;;7.60;99.90;;;;;;5033236;28;20177;-77
2021/12/10 13:03:53;;;;;;;3.35;1.60;;;7.50;99.90;;;;;;5032839;28;20247;-77
2021/12/10 13:06:30;;;;;;;5.72;1.52;;;7.50;99.90;;;;;;5033055;28;20169;-77
2021/12/10 13:09:10;;;;;;;3.55;1.30;;;7.50;99.90;;;;;;5032476;28;20243;-77
2021/12/10 13:14:22;;;;;;;4.00;1.35;;;7.40;99.90;;;;;;5047804;28;20192;-77
2021/12/10 13:16:57;;;;;;;4.20;1.67;;;7.30;99.90;;;;;;5044226;28;20180;-77
2021/12/10 13:19:29;;;;;;;3.25;1.77;;;7.30;99.90;;;;;;5053585;28;20183;-76
2021/12/10 13:22:07;;;;;;;2.75;1.70;;;7.20;99.90;;;;;;5052723;28;20226;-77
2021/12/10 13:28:34;;;;;;;4.05;1.65;;;7.20;99.90;;;;;;5048459;28;20292;-76
2021/12/10 13:31:08;;;;;;;3.43;2.23;;;7.00;99.90;;;;;;5053832;28;20246;-76
2021/12/10 13:33:36;;;;;;;2.97;2.58;;;6.90;99.90;;;;;;5052286;28;20982;-77